createdAt,value
2024-01-26T00:00:04.844Z,101887.75
2024-01-26T00:02:31.863Z,101894.19
2024-01-26T00:04:59.444Z,101892.13
2024-01-26T00:07:26.470Z,101891.72
2024-01-26T00:09:54.027Z,101899.81
2024-01-26T00:12:21.023Z,101886.28
2024-01-26T00:14:48.060Z,101877.69
2024-01-26T00:17:15.069Z,101888.50
2024-01-26T00:19:42.034Z,101894.63
2024-01-26T00:22:09.025Z,101889.88
2024-01-26T00:24:36.064Z,101883.38
2024-01-26T00:27:03.950Z,101894.06
2024-01-26T00:29:30.853Z,101887.56
2024-01-26T00:31:57.879Z,101881.34
2024-01-26T00:34:24.819Z,101880.78
2024-01-26T00:36:51.781Z,101867.50
2024-01-26T00:39:19.014Z,101874.03
2024-01-26T00:41:46.021Z,101853.63
2024-01-26T00:44:13.293Z,101866.66
2024-01-26T00:46:40.259Z,101873.34
2024-01-26T00:49:07.253Z,101859.81
2024-01-26T00:51:35.067Z,101866.03
2024-01-26T00:54:02.192Z,101861.47
2024-01-26T00:56:29.128Z,101863.78
2024-01-26T00:58:56.032Z,101866.88
2024-01-26T01:01:24.472Z,101862.63
2024-01-26T01:03:51.486Z,101856.44
2024-01-26T01:06:18.468Z,101846.81
2024-01-26T01:08:47.437Z,101832.41
2024-01-26T01:11:14.511Z,101825.59
2024-01-26T01:13:41.756Z,101844.22
2024-01-26T01:16:09.466Z,101829.88
2024-01-26T01:18:36.722Z,101842.84
2024-01-26T01:21:03.851Z,101837.19
2024-01-26T01:23:31.433Z,101827.53
2024-01-26T01:25:58.372Z,101831.97
2024-01-26T01:30:52.409Z,101817.16
2024-01-26T01:33:19.488Z,101824.44
2024-01-26T01:35:46.557Z,101820.81
2024-01-26T01:38:13.649Z,101826.09
2024-01-26T01:40:40.759Z,101824.88
2024-01-26T01:43:07.806Z,101815.84
2024-01-26T01:45:34.809Z,101832.13
2024-01-26T01:48:01.852Z,101825.03
2024-01-26T01:50:28.770Z,101827.03
2024-01-26T01:52:55.845Z,101811.31
2024-01-26T01:55:22.741Z,101820.97
2024-01-26T01:57:49.834Z,101816.16
2024-01-26T02:00:19.914Z,101804.75
2024-01-26T02:02:49.530Z,101809.97
2024-01-26T02:05:17.115Z,101808.47
2024-01-26T02:07:49.308Z,101823.31
2024-01-26T02:10:16.144Z,101827.50
2024-01-26T02:12:43.023Z,101809.19
2024-01-26T02:15:10.230Z,101792.00
2024-01-26T02:17:37.970Z,101801.31
2024-01-26T02:20:05.622Z,101808.34
2024-01-26T02:22:32.735Z,101818.50
2024-01-26T02:24:59.876Z,101805.81
2024-01-26T02:27:26.797Z,101808.84
2024-01-26T02:29:53.928Z,101825.53
2024-01-26T02:32:20.807Z,101829.84
2024-01-26T02:34:47.746Z,101805.97
2024-01-26T02:37:14.932Z,101831.13
2024-01-26T02:39:41.803Z,101840.25
2024-01-26T02:42:08.830Z,101832.69
2024-01-26T02:44:35.948Z,101833.38
2024-01-26T02:47:02.808Z,101841.00
2024-01-26T02:49:30.340Z,101835.63
2024-01-26T02:51:57.557Z,101843.19
2024-01-26T02:54:25.005Z,101821.31
2024-01-26T02:56:52.362Z,101823.88
2024-01-26T02:59:19.835Z,101828.03
2024-01-26T03:01:48.330Z,101829.72
2024-01-26T03:04:15.728Z,101824.91
2024-01-26T03:06:43.225Z,101828.03
2024-01-26T03:09:10.500Z,101827.50
2024-01-26T03:11:43.484Z,101800.50
2024-01-26T03:14:10.662Z,101820.22
2024-01-26T03:16:40.692Z,101826.41
2024-01-26T03:19:08.912Z,101832.00
2024-01-26T03:21:44.386Z,101819.06
2024-01-26T03:24:11.764Z,101818.66
2024-01-26T03:26:38.937Z,101824.44
2024-01-26T03:29:09.073Z,101813.75
2024-01-26T03:31:36.127Z,101828.06
2024-01-26T03:34:03.361Z,101827.31
2024-01-26T03:36:30.569Z,101821.63
2024-01-26T03:38:57.738Z,101835.16
2024-01-26T03:41:24.686Z,101828.22
2024-01-26T03:43:53.868Z,101819.75
2024-01-26T03:46:21.749Z,101820.31
2024-01-26T03:48:49.282Z,101823.97
2024-01-26T03:51:16.679Z,101816.13
2024-01-26T03:53:45.048Z,101815.44
2024-01-26T03:56:11.993Z,101822.22
2024-01-26T03:58:39.014Z,101827.31
2024-01-26T04:01:06.231Z,101799.84
2024-01-26T04:03:33.397Z,101808.28
2024-01-26T04:06:02.196Z,101812.25
2024-01-26T04:08:29.140Z,101800.22
2024-01-26T04:10:56.010Z,101827.22
2024-01-26T04:13:23.126Z,101820.28
2024-01-26T04:15:50.124Z,101800.03
2024-01-26T04:18:17.128Z,101811.03
2024-01-26T04:20:44.317Z,101803.66
2024-01-26T04:23:11.177Z,101812.06
2024-01-26T04:25:38.079Z,101811.81
2024-01-26T04:28:05.272Z,101813.00
2024-01-26T04:30:32.347Z,101808.84
2024-01-26T04:32:59.456Z,101802.38
2024-01-26T04:35:26.770Z,101799.91
2024-01-26T04:37:53.650Z,101809.72
2024-01-26T04:40:20.760Z,101797.03
2024-01-26T04:42:47.714Z,101800.16
2024-01-26T04:45:14.921Z,101788.91
2024-01-26T04:47:42.364Z,101804.06
2024-01-26T04:50:10.284Z,101803.47
2024-01-26T04:52:38.189Z,101798.38
2024-01-26T04:55:06.985Z,101792.97
2024-01-26T04:57:34.029Z,101798.34
2024-01-26T05:00:01.108Z,101811.53
2024-01-26T05:02:28.594Z,101803.84
2024-01-26T05:04:55.572Z,101810.31
2024-01-26T05:07:22.541Z,101818.50
2024-01-26T05:09:49.437Z,101823.53
2024-01-26T05:12:17.967Z,101833.72
2024-01-26T05:14:45.355Z,101832.31
2024-01-26T05:17:12.980Z,101830.38
2024-01-26T05:19:40.111Z,101835.19
2024-01-26T05:22:07.062Z,101830.44
2024-01-26T05:24:33.977Z,101825.44
2024-01-26T05:27:00.974Z,101814.44
2024-01-26T05:29:27.961Z,101828.28
2024-01-26T05:31:54.871Z,101804.06
2024-01-26T05:34:22.739Z,101822.69
2024-01-26T05:36:49.851Z,101815.97
2024-01-26T05:39:16.841Z,101817.28
2024-01-26T05:41:43.861Z,101825.75
2024-01-26T05:44:10.798Z,101820.69
2024-01-26T05:46:37.661Z,101823.47
2024-01-26T05:49:08.064Z,101818.72
2024-01-26T05:51:36.974Z,101817.03
2024-01-26T05:54:04.015Z,101813.91
2024-01-26T05:56:31.116Z,101807.91
2024-01-26T05:58:58.353Z,101820.28
2024-01-26T06:01:25.265Z,101814.69
2024-01-26T06:03:52.403Z,101802.81
2024-01-26T06:06:19.645Z,101805.19
2024-01-26T06:08:46.634Z,101806.88
2024-01-26T06:11:13.752Z,101807.38
2024-01-26T06:13:41.423Z,101787.66
2024-01-26T06:16:08.556Z,101803.66
2024-01-26T06:18:37.008Z,101793.84
2024-01-26T06:21:04.423Z,101795.25
2024-01-26T06:23:31.551Z,101792.66
2024-01-26T06:25:58.589Z,101801.66
2024-01-26T06:28:25.593Z,101801.06
2024-01-26T06:30:52.513Z,101796.56
2024-01-26T06:33:19.723Z,101795.13
2024-01-26T06:35:46.986Z,101787.72
2024-01-26T06:38:14.279Z,101787.09
2024-01-26T06:40:41.859Z,101774.16
2024-01-26T06:43:09.967Z,101788.19
2024-01-26T06:45:36.942Z,101756.09
2024-01-26T06:48:04.464Z,101790.31
2024-01-26T06:50:31.514Z,101798.53
2024-01-26T06:52:58.739Z,101797.75
2024-01-26T06:55:25.825Z,101801.13
2024-01-26T06:57:52.666Z,101783.19
2024-01-26T07:00:20.079Z,101775.34
2024-01-26T07:02:47.378Z,101768.44
2024-01-26T07:05:14.354Z,101766.59
2024-01-26T07:07:41.350Z,101796.34
2024-01-26T07:10:08.668Z,101794.06
2024-01-26T07:12:35.535Z,101796.25
2024-01-26T07:15:02.630Z,101777.00
2024-01-26T07:17:29.692Z,101795.28
2024-01-26T07:19:56.685Z,101794.66
2024-01-26T07:22:23.570Z,101794.09
2024-01-26T07:24:50.554Z,101806.38
2024-01-26T07:27:17.473Z,101795.38
2024-01-26T07:29:45.980Z,101796.47
2024-01-26T07:32:13.507Z,101767.09
2024-01-26T07:34:40.482Z,101796.81
2024-01-26T07:37:07.441Z,101799.59
2024-01-26T07:39:34.412Z,101795.91
2024-01-26T07:42:01.311Z,101809.72
2024-01-26T07:44:28.201Z,101785.38
2024-01-26T07:46:55.465Z,101793.59
2024-01-26T07:49:22.546Z,101788.75
2024-01-26T07:51:49.593Z,101801.25
2024-01-26T07:54:16.703Z,101807.41
2024-01-26T07:56:43.726Z,101799.44
2024-01-26T07:59:10.705Z,101804.28
2024-01-26T08:01:38.234Z,101822.06
2024-01-26T08:04:05.360Z,101822.16
2024-01-26T08:06:32.542Z,101831.13
2024-01-26T08:08:59.714Z,101828.66
2024-01-26T08:11:26.756Z,101832.03
2024-01-26T08:13:53.930Z,101816.34
2024-01-26T08:16:20.997Z,101821.16
2024-01-26T08:18:48.206Z,101824.25
2024-01-26T08:21:15.408Z,101821.72
2024-01-26T08:23:42.522Z,101823.97
2024-01-26T08:26:09.764Z,101830.81
2024-01-26T08:28:36.632Z,101821.63
2024-01-26T08:31:04.380Z,101817.56
2024-01-26T08:33:31.834Z,101819.88
2024-01-26T08:35:59.409Z,101820.53
2024-01-26T08:38:26.869Z,101813.56
2024-01-26T08:40:53.808Z,101808.94
2024-01-26T08:43:20.685Z,101791.28
2024-01-26T08:45:48.898Z,101822.03
2024-01-26T08:48:16.035Z,101818.50
2024-01-26T08:50:43.207Z,101813.53
2024-01-26T08:53:11.304Z,101786.94
2024-01-26T08:55:40.949Z,101800.03
2024-01-26T08:58:08.332Z,101797.38
2024-01-26T09:00:36.619Z,101785.13
2024-01-26T09:03:04.332Z,101799.22
2024-01-26T09:05:31.621Z,101787.78
2024-01-26T09:07:58.916Z,101784.22
2024-01-26T09:10:25.917Z,101812.44
2024-01-26T09:12:52.890Z,101808.06
2024-01-26T09:15:20.160Z,101808.72
2024-01-26T09:17:47.209Z,101816.72
2024-01-26T09:20:14.741Z,101808.63
2024-01-26T09:22:41.880Z,101812.50
2024-01-26T09:25:09.677Z,101800.81
2024-01-26T09:27:36.693Z,101813.06
2024-01-26T09:30:05.362Z,101817.41
2024-01-26T09:32:32.421Z,101820.81
2024-01-26T09:34:59.666Z,101823.34
2024-01-26T09:37:28.307Z,101796.13
2024-01-26T09:39:55.173Z,101826.59
2024-01-26T09:42:22.316Z,101823.16
2024-01-26T09:44:49.478Z,101819.66
2024-01-26T09:47:16.938Z,101828.13
2024-01-26T09:49:56.300Z,101823.56
2024-01-26T09:52:24.287Z,101804.44
2024-01-26T09:54:51.689Z,101798.97
2024-01-26T09:57:19.524Z,101809.38
2024-01-26T09:59:51.438Z,101805.00
2024-01-26T10:02:19.089Z,101817.06
2024-01-26T10:04:46.179Z,101813.53
2024-01-26T10:07:13.876Z,101801.63
2024-01-26T10:09:41.285Z,101820.19
2024-01-26T10:12:09.865Z,101805.97
2024-01-26T10:14:36.841Z,101812.59
2024-01-26T10:17:03.871Z,101817.50
2024-01-26T10:19:31.658Z,101822.97
2024-01-26T10:22:01.094Z,101821.38
2024-01-26T10:24:29.676Z,101830.38
2024-01-26T10:26:57.215Z,101838.88
2024-01-26T10:29:24.524Z,101841.91
2024-01-26T10:31:52.498Z,101849.22
2024-01-26T10:34:21.379Z,101834.69
2024-01-26T10:36:49.960Z,101829.03
2024-01-26T10:39:25.219Z,101834.66
2024-01-26T10:41:58.333Z,101846.13
2024-01-26T10:44:25.314Z,101858.94
2024-01-26T10:46:53.307Z,101831.88
2024-01-26T10:49:20.352Z,101848.84
2024-01-26T10:51:47.484Z,101847.91
2024-01-26T10:54:14.526Z,101842.56
2024-01-26T10:56:41.582Z,101836.69
2024-01-26T10:59:11.699Z,101834.06
2024-01-26T11:01:39.726Z,101850.63
2024-01-26T11:04:10.179Z,101836.91
2024-01-26T11:06:37.338Z,101850.78
2024-01-26T11:09:10.088Z,101834.78
2024-01-26T11:11:38.399Z,101839.84
2024-01-26T11:14:06.633Z,101844.84
2024-01-26T11:16:39.759Z,101838.66
2024-01-26T11:19:06.763Z,101851.44
2024-01-26T11:21:40.797Z,101836.75
2024-01-26T11:24:14.318Z,101830.78
2024-01-26T11:26:42.084Z,101834.78
2024-01-26T11:29:13.643Z,101832.75
2024-01-26T11:31:41.882Z,101834.97
2024-01-26T11:34:22.021Z,101824.59
2024-01-26T11:36:49.464Z,101839.66
2024-01-26T11:39:17.577Z,101839.41
2024-01-26T11:41:49.509Z,101816.88
2024-01-26T11:44:21.399Z,101822.56
2024-01-26T11:46:48.808Z,101826.63
2024-01-26T11:49:16.632Z,101816.63
2024-01-26T11:51:43.911Z,101806.81
2024-01-26T11:54:11.387Z,101814.19
2024-01-26T11:56:38.950Z,101804.06
2024-01-26T11:59:08.155Z,101808.47
2024-01-26T12:01:35.187Z,101805.94
2024-01-26T12:04:02.419Z,101805.22
2024-01-26T12:06:30.083Z,101805.38
2024-01-26T12:08:57.144Z,101801.72
2024-01-26T12:11:24.232Z,101793.19
2024-01-26T12:13:51.220Z,101790.91
2024-01-26T12:16:22.674Z,101780.84
2024-01-26T12:18:50.120Z,101759.34
2024-01-26T12:21:17.737Z,101770.09
2024-01-26T12:23:49.142Z,101765.97
2024-01-26T12:26:17.076Z,101754.19
2024-01-26T12:28:43.975Z,101757.13
2024-01-26T12:31:11.017Z,101739.09
2024-01-26T12:33:38.581Z,101720.97
2024-01-26T12:36:10.569Z,101712.63
2024-01-26T12:38:37.938Z,101720.72
2024-01-26T12:41:05.584Z,101724.34
2024-01-26T12:43:33.617Z,101718.22
2024-01-26T12:46:00.583Z,101704.75
2024-01-26T12:48:28.150Z,101712.22
2024-01-26T12:50:55.116Z,101710.28
2024-01-26T12:53:22.435Z,101713.34
2024-01-26T12:55:49.989Z,101702.84
2024-01-26T12:58:18.503Z,101704.72
2024-01-26T13:00:45.556Z,101704.78
2024-01-26T13:03:12.575Z,101698.25
2024-01-26T13:05:40.378Z,101682.09
2024-01-26T13:08:08.389Z,101646.75
2024-01-26T13:10:35.364Z,101687.47
2024-01-26T13:13:02.299Z,101690.09
2024-01-26T13:15:29.260Z,101686.84
2024-01-26T13:17:56.447Z,101679.88
2024-01-26T13:20:23.721Z,101689.06
2024-01-26T13:22:50.878Z,101678.81
2024-01-26T13:25:18.188Z,101666.41
2024-01-26T13:27:45.222Z,101662.34
2024-01-26T13:30:13.001Z,101649.72
2024-01-26T13:32:40.500Z,101648.50
2024-01-26T13:35:07.956Z,101651.00
2024-01-26T13:37:34.818Z,101657.97
2024-01-26T13:40:01.776Z,101660.44
2024-01-26T13:42:31.423Z,101634.13
2024-01-26T13:44:58.668Z,101645.00
2024-01-26T13:47:25.957Z,101647.72
2024-01-26T13:49:55.809Z,101647.66
2024-01-26T13:52:25.614Z,101642.53
2024-01-26T13:54:52.545Z,101640.56
2024-01-26T13:57:21.910Z,101627.19
2024-01-26T13:59:48.856Z,101625.97
2024-01-26T14:02:15.846Z,101613.63
2024-01-26T14:04:42.685Z,101617.19
2024-01-26T14:07:09.891Z,101615.72
2024-01-26T14:09:36.991Z,101614.22
2024-01-26T14:12:05.058Z,101584.03
2024-01-26T14:14:32.350Z,101600.25
2024-01-26T14:16:59.299Z,101598.41
2024-01-26T14:19:26.381Z,101580.13
2024-01-26T14:21:55.585Z,101602.69
2024-01-26T14:24:23.302Z,101583.47
2024-01-26T14:26:50.284Z,101590.47
2024-01-26T14:29:19.180Z,101575.25
2024-01-26T14:31:48.748Z,101575.06
2024-01-26T14:34:15.819Z,101554.63
2024-01-26T14:36:43.731Z,101576.06
2024-01-26T14:39:11.325Z,101572.31
2024-01-26T14:41:39.009Z,101561.63
2024-01-26T14:44:05.992Z,101546.03
2024-01-26T14:46:35.068Z,101561.56
2024-01-26T14:49:03.498Z,101561.06
2024-01-26T14:51:30.520Z,101548.00
2024-01-26T14:53:58.155Z,101556.25
2024-01-26T14:56:25.036Z,101559.09
2024-01-26T14:58:56.330Z,101554.06
2024-01-26T15:01:23.428Z,101555.38
2024-01-26T15:03:50.375Z,101564.75
2024-01-26T15:06:17.873Z,101550.16
2024-01-26T15:08:45.165Z,101552.88
2024-01-26T15:11:12.205Z,101560.22
2024-01-26T15:13:39.939Z,101540.81
2024-01-26T15:16:08.617Z,101540.50
2024-01-26T15:18:36.217Z,101526.06
2024-01-26T15:21:03.445Z,101546.19
2024-01-26T15:23:30.578Z,101540.50
2024-01-26T15:25:57.468Z,101537.66
2024-01-26T15:28:24.450Z,101535.97
2024-01-26T15:30:51.460Z,101522.75
2024-01-26T15:33:18.412Z,101515.88
2024-01-26T15:35:45.522Z,101528.13
2024-01-26T15:38:12.487Z,101524.44
2024-01-26T15:40:40.330Z,101517.75
2024-01-26T15:43:07.225Z,101526.78
2024-01-26T15:45:35.244Z,101529.75
2024-01-26T15:48:02.544Z,101524.53
2024-01-26T15:50:29.712Z,101519.97
2024-01-26T15:52:56.616Z,101543.88
2024-01-26T15:55:23.503Z,101539.19
2024-01-26T15:57:50.428Z,101540.66
2024-01-26T16:00:17.830Z,101535.13
2024-01-26T16:02:44.968Z,101532.25
2024-01-26T16:05:12.132Z,101532.75
2024-01-26T16:07:39.489Z,101533.72
2024-01-26T16:10:08.604Z,101536.91
2024-01-26T16:12:37.597Z,101539.19
2024-01-26T16:15:07.614Z,101530.84
2024-01-26T16:17:34.979Z,101534.19
2024-01-26T16:20:02.125Z,101541.97
2024-01-26T16:22:29.224Z,101543.44
2024-01-26T16:24:56.098Z,101512.25
2024-01-26T16:27:23.166Z,101544.75
2024-01-26T16:29:50.338Z,101530.50
2024-01-26T16:32:17.212Z,101522.94
2024-01-26T16:34:44.342Z,101536.00
2024-01-26T16:37:11.319Z,101539.03
2024-01-26T16:39:38.398Z,101538.00
2024-01-26T16:42:05.783Z,101542.31
2024-01-26T16:44:32.859Z,101534.53
2024-01-26T16:46:59.757Z,101534.53
2024-01-26T16:49:26.799Z,101542.03
2024-01-26T16:51:53.784Z,101540.47
2024-01-26T16:54:20.740Z,101533.28
2024-01-26T16:56:47.719Z,101534.03
2024-01-26T16:59:14.694Z,101509.63
2024-01-26T17:01:41.633Z,101538.91
2024-01-26T17:04:08.740Z,101524.44
2024-01-26T17:06:36.005Z,101530.09
2024-01-26T17:09:03.154Z,101529.03
2024-01-26T17:11:30.195Z,101497.00
2024-01-26T17:13:57.396Z,101514.69
2024-01-26T17:16:24.257Z,101506.94
2024-01-26T17:18:51.335Z,101501.19
2024-01-26T17:21:18.440Z,101501.09
2024-01-26T17:23:45.439Z,101498.69
2024-01-26T17:26:12.533Z,101502.44
2024-01-26T17:28:39.500Z,101501.19
2024-01-26T17:31:08.565Z,101510.22
2024-01-26T17:33:35.753Z,101509.81
2024-01-26T17:36:03.357Z,101514.41
2024-01-26T17:38:31.426Z,101516.50
2024-01-26T17:40:58.866Z,101517.22
2024-01-26T17:43:26.021Z,101493.81
2024-01-26T17:45:52.888Z,101517.38
2024-01-26T17:48:20.143Z,101528.81
2024-01-26T17:50:47.435Z,101517.69
2024-01-26T17:53:14.345Z,101526.06
2024-01-26T17:55:43.910Z,101535.19
2024-01-26T17:58:12.182Z,101532.13
2024-01-26T18:00:39.350Z,101534.22
2024-01-26T18:03:07.087Z,101524.84
2024-01-26T18:05:34.316Z,101536.78
2024-01-26T18:08:01.968Z,101531.19
2024-01-26T18:10:28.854Z,101540.28
2024-01-26T18:12:55.855Z,101529.91
2024-01-26T18:15:22.956Z,101532.84
2024-01-26T18:17:50.179Z,101521.47
2024-01-26T18:20:18.735Z,101540.56
2024-01-26T18:22:45.705Z,101534.34
2024-01-26T18:25:15.034Z,101517.78
2024-01-26T18:27:42.236Z,101523.75
2024-01-26T18:30:09.540Z,101529.94
2024-01-26T18:32:36.759Z,101537.88
2024-01-26T18:35:04.120Z,101537.13
2024-01-26T18:37:30.994Z,101516.09
2024-01-26T18:39:57.937Z,101531.84
2024-01-26T18:42:24.957Z,101541.25
2024-01-26T18:44:52.013Z,101530.28
2024-01-26T18:47:19.002Z,101530.97
2024-01-26T18:49:46.332Z,101510.53
2024-01-26T18:52:14.088Z,101527.69
2024-01-26T18:54:40.986Z,101527.84
2024-01-26T18:57:08.062Z,101536.91
2024-01-26T18:59:35.142Z,101539.28
2024-01-26T19:02:04.280Z,101532.88
2024-01-26T19:04:32.732Z,101528.94
2024-01-26T19:07:00.459Z,101534.34
2024-01-26T19:09:27.618Z,101537.09
2024-01-26T19:11:55.177Z,101538.81
2024-01-26T19:14:22.391Z,101531.53
2024-01-26T19:16:49.675Z,101543.53
2024-01-26T19:19:17.037Z,101554.50
2024-01-26T19:21:45.027Z,101550.00
2024-01-26T19:24:12.344Z,101538.25
2024-01-26T19:26:39.914Z,101537.78
2024-01-26T19:29:07.111Z,101544.31
2024-01-26T19:31:33.961Z,101550.25
2024-01-26T19:34:01.166Z,101557.41
2024-01-26T19:36:29.106Z,101552.13
2024-01-26T19:38:56.247Z,101551.66
2024-01-26T19:41:23.967Z,101539.75
2024-01-26T19:43:52.328Z,101540.94
2024-01-26T19:46:19.801Z,101539.53
2024-01-26T19:48:47.492Z,101537.91
2024-01-26T19:51:14.775Z,101552.25
2024-01-26T19:53:41.851Z,101556.97
2024-01-26T19:56:09.274Z,101549.34
2024-01-26T19:58:37.064Z,101551.28
2024-01-26T20:01:04.520Z,101545.66
2024-01-26T20:03:32.620Z,101550.75
2024-01-26T20:05:59.618Z,101548.22
2024-01-26T20:08:27.709Z,101542.63
2024-01-26T20:10:56.616Z,101542.75
2024-01-26T20:13:24.234Z,101539.41
2024-01-26T20:15:51.556Z,101544.16
2024-01-26T20:18:19.153Z,101521.41
2024-01-26T20:20:46.415Z,101540.22
2024-01-26T20:23:13.331Z,101537.16
2024-01-26T20:25:42.710Z,101508.00
2024-01-26T20:28:09.873Z,101526.72
2024-01-26T20:30:37.188Z,101531.84
2024-01-26T20:33:06.042Z,101526.25
2024-01-26T20:35:33.615Z,101508.66
2024-01-26T20:38:00.514Z,101517.59
2024-01-26T20:40:29.264Z,101526.09
2024-01-26T20:43:01.236Z,101508.69
2024-01-26T20:45:28.958Z,101502.25
2024-01-26T20:47:58.751Z,101514.97
2024-01-26T20:50:28.232Z,101511.91
2024-01-26T20:52:55.222Z,101515.00
2024-01-26T20:55:22.372Z,101516.44
2024-01-26T20:57:53.938Z,101502.41
2024-01-26T21:00:21.465Z,101509.69
2024-01-26T21:02:48.943Z,101485.28
2024-01-26T21:05:17.615Z,101506.03
2024-01-26T21:07:54.655Z,101490.28
2024-01-26T21:10:21.586Z,101492.56
2024-01-26T21:12:48.469Z,101509.97
2024-01-26T21:15:15.436Z,101512.25
2024-01-26T21:17:42.408Z,101518.16
2024-01-26T21:20:11.199Z,101501.84
2024-01-26T21:22:42.085Z,101504.72
2024-01-26T21:25:10.542Z,101508.69
2024-01-26T21:27:37.428Z,101490.72
2024-01-26T21:30:05.080Z,101489.88
2024-01-26T21:32:32.081Z,101491.59
2024-01-26T21:34:59.246Z,101471.97
2024-01-26T21:37:26.551Z,101491.59
2024-01-26T21:39:53.489Z,101496.69
2024-01-26T21:42:22.690Z,101503.47
2024-01-26T21:44:51.352Z,101478.78
2024-01-26T21:47:18.958Z,101502.06
2024-01-26T21:49:46.342Z,101498.09
2024-01-26T21:52:15.160Z,101480.75
2024-01-26T21:54:42.056Z,101497.53
2024-01-26T21:57:09.198Z,101492.78
2024-01-26T21:59:36.314Z,101498.34
2024-01-26T22:02:03.727Z,101480.38
2024-01-26T22:04:31.002Z,101492.44
2024-01-26T22:06:57.968Z,101489.88
2024-01-26T22:09:25.080Z,101474.97
2024-01-26T22:11:54.297Z,101487.06
2024-01-26T22:14:21.291Z,101487.66
2024-01-26T22:16:48.173Z,101475.31
2024-01-26T22:19:15.295Z,101486.84
2024-01-26T22:21:42.345Z,101485.44
2024-01-26T22:24:09.373Z,101458.00
2024-01-26T22:26:36.261Z,101483.25
2024-01-26T22:29:04.871Z,101475.06
2024-01-26T22:31:31.834Z,101464.72
2024-01-26T22:33:58.829Z,101480.16
2024-01-26T22:36:26.028Z,101479.34
2024-01-26T22:38:54.483Z,101494.25
2024-01-26T22:41:21.343Z,101474.31
2024-01-26T22:43:48.765Z,101492.28
2024-01-26T22:46:16.416Z,101490.28
2024-01-26T22:48:43.474Z,101479.94
2024-01-26T22:51:10.538Z,101501.31
2024-01-26T22:53:37.522Z,101497.09
2024-01-26T22:56:04.695Z,101469.03
2024-01-26T22:58:31.788Z,101489.53
2024-01-26T23:00:59.256Z,101488.97
2024-01-26T23:03:26.233Z,101472.38
2024-01-26T23:05:53.321Z,101480.81
2024-01-26T23:08:20.306Z,101485.63
2024-01-26T23:10:47.258Z,101491.53
2024-01-26T23:13:14.649Z,101485.06
2024-01-26T23:15:41.540Z,101486.19
2024-01-26T23:18:08.609Z,101484.22
2024-01-26T23:20:35.677Z,101480.56
2024-01-26T23:23:02.564Z,101476.06
2024-01-26T23:25:29.528Z,101460.38
2024-01-26T23:27:56.971Z,101470.72
2024-01-26T23:30:23.856Z,101473.84
2024-01-26T23:32:53.234Z,101475.81
2024-01-26T23:35:21.139Z,101463.16
2024-01-26T23:37:48.105Z,101476.09
2024-01-26T23:40:15.149Z,101441.88
2024-01-26T23:42:42.223Z,101469.66
2024-01-26T23:45:09.780Z,101450.03
2024-01-26T23:47:36.849Z,101468.53
2024-01-26T23:50:04.492Z,101467.69
2024-01-26T23:52:31.384Z,101464.91
2024-01-26T23:55:02.196Z,101460.97
2024-01-26T23:57:29.350Z,101460.97
2024-01-26T23:59:56.334Z,101463.78
